sensor_id;sensor_type;location;lat;lon;timestamp;pressure;altitude;pressure_sealevel;temperature;humidity
73341;BME280;61578;52.002;5.468;2023-04-22T00:00:22;100811.88;;;9.07;88.88
73341;BME280;61578;52.002;5.468;2023-04-22T00:00:55;100808.47;;;9.05;89.03
73341;BME280;61578;52.002;5.468;2023-04-22T00:01:26;100798.22;;;8.99;89.09
73341;BME280;61578;52.002;5.468;2023-04-22T00:01:58;100813.78;;;9.05;88.88
73341;BME280;61578;52.002;5.468;2023-04-22T00:02:28;100808.47;;;9.05;88.91
73341;BME280;61578;52.002;5.468;2023-04-22T00:02:59;100800.63;;;9.04;88.88
73341;BME280;61578;52.002;5.468;2023-04-22T00:03:33;100805.06;;;9.03;88.92
73341;BME280;61578;52.002;5.468;2023-04-22T00:04:04;100809.59;;;9.01;89.14
73341;BME280;61578;52.002;5.468;2023-04-22T00:04:35;100813.25;;;8.99;89.18
73341;BME280;61578;52.002;5.468;2023-04-22T00:05:07;100807.09;;;8.98;89.28
73341;BME280;61578;52.002;5.468;2023-04-22T00:05:38;100806.25;;;8.98;89.12
73341;BME280;61578;52.002;5.468;2023-04-22T00:06:12;100805.22;;;9.00;89.50
73341;BME280;61578;52.002;5.468;2023-04-22T00:06:43;100807.72;;;9.03;89.56
73341;BME280;61578;52.002;5.468;2023-04-22T00:07:17;100803.28;;;9.04;89.27
73341;BME280;61578;52.002;5.468;2023-04-22T00:07:48;100797.97;;;9.04;89.20
73341;BME280;61578;52.002;5.468;2023-04-22T00:08:19;100784.31;;;8.96;89.26
73341;BME280;61578;52.002;5.468;2023-04-22T00:08:51;100798.91;;;9.03;88.77
73341;BME280;61578;52.002;5.468;2023-04-22T00:09:22;100785.06;;;8.98;88.29
73341;BME280;61578;52.002;5.468;2023-04-22T00:09:53;100795.41;;;9.02;88.61
73341;BME280;61578;52.002;5.468;2023-04-22T00:10:24;100795.34;;;9.18;87.98
73341;BME280;61578;52.002;5.468;2023-04-22T00:10:54;100795.66;;;9.28;87.83
73341;BME280;61578;52.002;5.468;2023-04-22T00:11:26;100795.56;;;9.29;87.50
73341;BME280;61578;52.002;5.468;2023-04-22T00:11:57;100791.88;;;9.32;87.57
73341;BME280;61578;52.002;5.468;2023-04-22T00:12:28;100790.00;;;9.34;87.20
73341;BME280;61578;52.002;5.468;2023-04-22T00:12:59;100780.34;;;9.33;87.24
73341;BME280;61578;52.002;5.468;2023-04-22T00:13:29;100784.63;;;9.35;86.64
73341;BME280;61578;52.002;5.468;2023-04-22T00:14:00;100792.47;;;9.37;86.53
73341;BME280;61578;52.002;5.468;2023-04-22T00:14:31;100784.72;;;9.34;87.11
73341;BME280;61578;52.002;5.468;2023-04-22T00:15:02;100783.78;;;9.35;87.17
73341;BME280;61578;52.002;5.468;2023-04-22T00:15:35;100795.31;;;9.34;86.83
73341;BME280;61578;52.002;5.468;2023-04-22T00:16:07;100788.22;;;9.34;87.24
73341;BME280;61578;52.002;5.468;2023-04-22T00:16:38;100790.94;;;9.33;87.05
73341;BME280;61578;52.002;5.468;2023-04-22T00:17:08;100785.66;;;9.33;87.00
73341;BME280;61578;52.002;5.468;2023-04-22T00:17:39;100791.88;;;9.32;87.32
73341;BME280;61578;52.002;5.468;2023-04-22T00:18:11;100792.66;;;9.34;87.41
73341;BME280;61578;52.002;5.468;2023-04-22T00:18:43;100788.56;;;9.28;87.02
73341;BME280;61578;52.002;5.468;2023-04-22T00:19:14;100791.09;;;9.15;87.53
73341;BME280;61578;52.002;5.468;2023-04-22T00:19:45;100787.78;;;9.12;87.99
73341;BME280;61578;52.002;5.468;2023-04-22T00:20:17;100776.47;;;8.94;88.62
73341;BME280;61578;52.002;5.468;2023-04-22T00:20:50;100782.72;;;8.93;88.45
73341;BME280;61578;52.002;5.468;2023-04-22T00:21:21;100787.22;;;8.91;89.25
73341;BME280;61578;52.002;5.468;2023-04-22T00:21:52;100792.78;;;8.86;89.43
73341;BME280;61578;52.002;5.468;2023-04-22T00:22:22;100788.34;;;8.87;88.96
73341;BME280;61578;52.002;5.468;2023-04-22T00:22:53;100780.69;;;8.82;89.39
73341;BME280;61578;52.002;5.468;2023-04-22T00:23:24;100790.41;;;8.82;89.37
73341;BME280;61578;52.002;5.468;2023-04-22T00:23:55;100784.34;;;8.80;89.10
73341;BME280;61578;52.002;5.468;2023-04-22T00:24:26;100790.59;;;8.79;89.33
73341;BME280;61578;52.002;5.468;2023-04-22T00:24:56;100788.22;;;8.74;88.85
73341;BME280;61578;52.002;5.468;2023-04-22T00:25:27;100787.34;;;8.74;89.20
73341;BME280;61578;52.002;5.468;2023-04-22T00:25:59;100783.94;;;8.72;89.09
73341;BME280;61578;52.002;5.468;2023-04-22T00:26:30;100789.22;;;8.72;89.29
73341;BME280;61578;52.002;5.468;2023-04-22T00:27:01;100786.59;;;8.72;89.02
73341;BME280;61578;52.002;5.468;2023-04-22T00:27:32;100775.47;;;8.65;89.29
73341;BME280;61578;52.002;5.468;2023-04-22T00:28:03;100785.66;;;8.73;89.82
73341;BME280;61578;52.002;5.468;2023-04-22T00:28:34;100786.50;;;8.73;89.53
73341;BME280;61578;52.002;5.468;2023-04-22T00:29:04;100783.00;;;8.73;89.30
73341;BME280;61578;52.002;5.468;2023-04-22T00:29:35;100780.44;;;8.71;89.00
73341;BME280;61578;52.002;5.468;2023-04-22T00:30:12;100779.94;;;8.65;89.41
73341;BME280;61578;52.002;5.468;2023-04-22T00:30:43;100792.75;;;8.72;89.72
73341;BME280;61578;52.002;5.468;2023-04-22T00:31:14;100779.19;;;8.63;89.24
73341;BME280;61578;52.002;5.468;2023-04-22T00:31:44;100792.22;;;8.66;89.80
73341;BME280;61578;52.002;5.468;2023-04-22T00:32:21;100788.63;;;8.67;89.29
73341;BME280;61578;52.002;5.468;2023-04-22T00:32:52;100788.63;;;8.67;89.55
73341;BME280;61578;52.002;5.468;2023-04-22T00:33:23;100791.47;;;8.64;89.51
73341;BME280;61578;52.002;5.468;2023-04-22T00:33:57;100790.63;;;8.63;89.61
73341;BME280;61578;52.002;5.468;2023-04-22T00:34:31;100795.91;;;8.63;89.85
73341;BME280;61578;52.002;5.468;2023-04-22T00:35:02;100794.19;;;8.62;89.94
73341;BME280;61578;52.002;5.468;2023-04-22T00:35:32;100790.78;;;8.60;89.46
73341;BME280;61578;52.002;5.468;2023-04-22T00:36:03;100792.56;;;8.60;89.60
73341;BME280;61578;52.002;5.468;2023-04-22T00:36:35;100783.44;;;8.49;89.55
73341;BME280;61578;52.002;5.468;2023-04-22T00:37:05;100781.56;;;8.52;89.28
73341;BME280;61578;52.002;5.468;2023-04-22T00:37:36;100796.16;;;8.59;89.81
73341;BME280;61578;52.002;5.468;2023-04-22T00:38:07;100791.63;;;8.61;89.26
73341;BME280;61578;52.002;5.468;2023-04-22T00:38:38;100789.00;;;8.61;89.44
73341;BME280;61578;52.002;5.468;2023-04-22T00:39:10;100798.63;;;8.62;89.74
73341;BME280;61578;52.002;5.468;2023-04-22T00:39:42;100788.06;;;8.62;89.63
73341;BME280;61578;52.002;5.468;2023-04-22T00:40:13;100793.34;;;8.62;89.88
73341;BME280;61578;52.002;5.468;2023-04-22T00:40:44;100786.25;;;8.62;90.03
73341;BME280;61578;52.002;5.468;2023-04-22T00:41:16;100785.50;;;8.60;89.97
73341;BME280;61578;52.002;5.468;2023-04-22T00:41:48;100786.34;;;8.61;90.05
73341;BME280;61578;52.002;5.468;2023-04-22T00:42:20;100786.34;;;8.61;90.04
73341;BME280;61578;52.002;5.468;2023-04-22T00:42:54;100794.19;;;8.62;89.86
73341;BME280;61578;52.002;5.468;2023-04-22T00:43:28;100795.31;;;8.58;90.03
73341;BME280;61578;52.002;5.468;2023-04-22T00:43:59;100796.16;;;8.59;89.97
73341;BME280;61578;52.002;5.468;2023-04-22T00:44:31;100780.56;;;8.54;89.76
73341;BME280;61578;52.002;5.468;2023-04-22T00:45:02;100790.94;;;8.57;89.42
73341;BME280;61578;52.002;5.468;2023-04-22T00:45:36;100784.22;;;8.52;89.84
73341;BME280;61578;52.002;5.468;2023-04-22T00:46:08;100798.81;;;8.59;90.31
73341;BME280;61578;52.002;5.468;2023-04-22T00:46:38;100792.56;;;8.60;90.10
73341;BME280;61578;52.002;5.468;2023-04-22T00:47:10;100788.13;;;8.60;89.96
73341;BME280;61578;52.002;5.468;2023-04-22T00:47:43;100773.63;;;8.52;90.09
73341;BME280;61578;52.002;5.468;2023-04-22T00:48:15;100790.78;;;8.60;89.93
73341;BME280;61578;52.002;5.468;2023-04-22T00:48:46;100798.63;;;8.62;89.71
73341;BME280;61578;52.002;5.468;2023-04-22T00:49:18;100797.88;;;8.60;89.76
73341;BME280;61578;52.002;5.468;2023-04-22T00:49:50;100800.59;;;8.58;89.54
73341;BME280;61578;52.002;5.468;2023-04-22T00:50:23;100799.75;;;8.58;89.39
73341;BME280;61578;52.002;5.468;2023-04-22T00:50:54;100792.00;;;8.55;89.28
73341;BME280;61578;52.002;5.468;2023-04-22T00:51:25;100805.22;;;8.55;89.57
73341;BME280;61578;52.002;5.468;2023-04-22T00:51:57;100793.66;;;8.56;89.39
73341;BME280;61578;52.002;5.468;2023-04-22T00:52:29;100792.75;;;8.57;89.60
73341;BME280;61578;52.002;5.468;2023-04-22T00:53:00;100799.75;;;8.58;89.62
73341;BME280;61578;52.002;5.468;2023-04-22T00:53:31;100796.31;;;8.56;89.48
73341;BME280;61578;52.002;5.468;2023-04-22T00:54:01;100804.38;;;8.54;90.06
73341;BME280;61578;52.002;5.468;2023-04-22T00:54:34;100802.66;;;8.53;89.94
73341;BME280;61578;52.002;5.468;2023-04-22T00:55:06;100805.38;;;8.52;89.77
73341;BME280;61578;52.002;5.468;2023-04-22T00:55:37;100789.94;;;8.44;89.76
73341;BME280;61578;52.002;5.468;2023-04-22T00:56:10;100789.25;;;8.40;90.00
73341;BME280;61578;52.002;5.468;2023-04-22T00:56:42;100800.41;;;8.45;90.00
73341;BME280;61578;52.002;5.468;2023-04-22T00:57:14;100794.53;;;8.40;89.53
73341;BME280;61578;52.002;5.468;2023-04-22T00:57:45;100795.41;;;8.41;89.88
73341;BME280;61578;52.002;5.468;2023-04-22T00:58:20;100794.63;;;8.39;90.15
73341;BME280;61578;52.002;5.468;2023-04-22T00:58:55;100805.22;;;8.39;89.89
73341;BME280;61578;52.002;5.468;2023-04-22T00:59:27;100800.78;;;8.39;89.86
73341;BME280;61578;52.002;5.468;2023-04-22T01:00:01;100802.47;;;8.40;90.19
73341;BME280;61578;52.002;5.468;2023-04-22T01:00:35;100801.56;;;8.41;89.84
73341;BME280;61578;52.002;5.468;2023-04-22T01:01:05;100804.19;;;8.41;89.87
73341;BME280;61578;52.002;5.468;2023-04-22T01:01:36;100804.34;;;8.38;90.42
73341;BME280;61578;52.002;5.468;2023-04-22T01:02:07;100805.13;;;8.40;90.65
73341;BME280;61578;52.002;5.468;2023-04-22T01:02:38;100785.34;;;8.32;90.27
73341;BME280;61578;52.002;5.468;2023-04-22T01:03:10;100802.56;;;8.39;90.10
73341;BME280;61578;52.002;5.468;2023-04-22T01:03:41;100801.88;;;8.35;89.92
73341;BME280;61578;52.002;5.468;2023-04-22T01:04:13;100803.66;;;8.35;90.42
73341;BME280;61578;52.002;5.468;2023-04-22T01:04:45;100794.34;;;8.28;89.90
73341;BME280;61578;52.002;5.468;2023-04-22T01:05:17;100801.97;;;8.34;90.55
73341;BME280;61578;52.002;5.468;2023-04-22T01:05:49;100795.13;;;8.30;90.61
73341;BME280;61578;52.002;5.468;2023-04-22T01:06:21;100794.25;;;8.29;90.18
73341;BME280;61578;52.002;5.468;2023-04-22T01:06:53;100807.63;;;8.26;89.80
73341;BME280;61578;52.002;5.468;2023-04-22T01:07:24;100802.44;;;8.25;89.85
73341;BME280;61578;52.002;5.468;2023-04-22T01:07:54;100797.25;;;8.23;90.51
73341;BME280;61578;52.002;5.468;2023-04-22T01:08:27;100792.91;;;8.22;90.39
73341;BME280;61578;52.002;5.468;2023-04-22T01:09:01;100801.69;;;8.23;90.62
73341;BME280;61578;52.002;5.468;2023-04-22T01:09:32;100801.75;;;8.21;90.34
73341;BME280;61578;52.002;5.468;2023-04-22T01:10:04;100803.63;;;8.19;89.92
73341;BME280;61578;52.002;5.468;2023-04-22T01:10:36;100801.94;;;8.18;89.87
73341;BME280;61578;52.002;5.468;2023-04-22T01:11:07;100799.44;;;8.15;90.03
73341;BME280;61578;52.002;5.468;2023-04-22T01:11:38;100806.63;;;8.13;89.99
73341;BME280;61578;52.002;5.468;2023-04-22T01:12:08;100807.56;;;8.12;89.98
73341;BME280;61578;52.002;5.468;2023-04-22T01:12:40;100805.00;;;8.10;90.25
73341;BME280;61578;52.002;5.468;2023-04-22T01:13:10;100796.19;;;8.10;90.06
73341;BME280;61578;52.002;5.468;2023-04-22T01:13:41;100799.09;;;8.05;89.96
73341;BME280;61578;52.002;5.468;2023-04-22T01:14:12;100799.19;;;8.04;90.49
73341;BME280;61578;52.002;5.468;2023-04-22T01:14:48;100803.53;;;8.05;90.52
73341;BME280;61578;52.002;5.468;2023-04-22T01:15:20;100795.69;;;8.03;90.51
73341;BME280;61578;52.002;5.468;2023-04-22T01:15:52;100800.97;;;8.03;90.12
73341;BME280;61578;52.002;5.468;2023-04-22T01:16:26;100799.34;;;8.01;90.55
73341;BME280;61578;52.002;5.468;2023-04-22T01:16:58;100805.50;;;8.01;90.91
73341;BME280;61578;52.002;5.468;2023-04-22T01:17:29;100809.06;;;8.00;90.69
73341;BME280;61578;52.002;5.468;2023-04-22T01:18:01;100803.00;;;7.98;89.84
73341;BME280;61578;52.002;5.468;2023-04-22T01:18:33;100804.09;;;7.94;90.21
73341;BME280;61578;52.002;5.468;2023-04-22T01:19:07;100790.38;;;7.88;90.83
73341;BME280;61578;52.002;5.468;2023-04-22T01:19:37;100807.59;;;7.95;90.35
73341;BME280;61578;52.002;5.468;2023-04-22T01:20:10;100797.28;;;7.90;90.33
73341;BME280;61578;52.002;5.468;2023-04-22T01:20:41;100801.72;;;7.90;90.38
73341;BME280;61578;52.002;5.468;2023-04-22T01:21:13;100799.94;;;7.90;90.93
73341;BME280;61578;52.002;5.468;2023-04-22T01:21:46;100802.50;;;7.92;90.84
73341;BME280;61578;52.002;5.468;2023-04-22T01:22:25;100807.84;;;7.90;90.45
73341;BME280;61578;52.002;5.468;2023-04-22T01:23:13;100800.84;;;7.89;90.50
73341;BME280;61578;52.002;5.468;2023-04-22T01:23:48;100801.94;;;7.85;90.86
73341;BME280;61578;52.002;5.468;2023-04-22T01:24:19;100802.81;;;7.86;90.65
73341;BME280;61578;52.002;5.468;2023-04-22T01:24:50;100791.88;;;7.76;90.54
73341;BME280;61578;52.002;5.468;2023-04-22T01:25:25;100789.31;;;7.74;90.69
73341;BME280;61578;52.002;5.468;2023-04-22T01:25:56;100796.00;;;7.82;90.81
73341;BME280;61578;52.002;5.468;2023-04-22T01:26:28;100799.56;;;7.81;90.83
73341;BME280;61578;52.002;5.468;2023-04-22T01:27:01;100804.84;;;7.81;90.54
73341;BME280;61578;52.002;5.468;2023-04-22T01:27:32;100797.00;;;7.79;90.68
73341;BME280;61578;52.002;5.468;2023-04-22T01:28:16;100802.13;;;7.82;90.25
73341;BME280;61578;52.002;5.468;2023-04-22T01:28:47;100802.56;;;7.90;90.66
73341;BME280;61578;52.002;5.468;2023-04-22T01:29:19;100781.91;;;7.81;90.66
73341;BME280;61578;52.002;5.468;2023-04-22T01:29:51;100796.00;;;7.82;90.25
73341;BME280;61578;52.002;5.468;2023-04-22T01:30:22;100802.38;;;7.78;90.37
73341;BME280;61578;52.002;5.468;2023-04-22T01:30:53;100798.09;;;7.75;90.45
73341;BME280;61578;52.002;5.468;2023-04-22T01:31:25;100800.06;;;7.71;90.47
73341;BME280;61578;52.002;5.468;2023-04-22T01:31:56;100792.22;;;7.70;90.84
73341;BME280;61578;52.002;5.468;2023-04-22T01:32:33;100791.34;;;7.69;90.14
73341;BME280;61578;52.002;5.468;2023-04-22T01:33:17;100791.34;;;7.69;91.16
73341;BME280;61578;52.002;5.468;2023-04-22T01:33:49;100793.91;;;7.71;90.68
73341;BME280;61578;52.002;5.468;2023-04-22T01:34:21;100799.19;;;7.71;90.85
73341;BME280;61578;52.002;5.468;2023-04-22T01:34:52;100781.09;;;7.63;90.94
73341;BME280;61578;52.002;5.468;2023-04-22T01:35:23;100794.16;;;7.66;90.68
73341;BME280;61578;52.002;5.468;2023-04-22T01:35:53;100797.66;;;7.67;91.06
73341;BME280;61578;52.002;5.468;2023-04-22T01:36:24;100780.41;;;7.60;90.79
73341;BME280;61578;52.002;5.468;2023-04-22T01:36:58;100795.94;;;7.66;90.81
73341;BME280;61578;52.002;5.468;2023-04-22T01:37:29;100793.22;;;7.67;90.49
73341;BME280;61578;52.002;5.468;2023-04-22T01:38:00;100789.78;;;7.65;91.02
73341;BME280;61578;52.002;5.468;2023-04-22T01:38:31;100785.13;;;7.70;90.60
73341;BME280;61578;52.002;5.468;2023-04-22T01:39:03;100794.06;;;7.68;90.84
73341;BME280;61578;52.002;5.468;2023-04-22T01:39:34;100790.56;;;7.67;90.53
73341;BME280;61578;52.002;5.468;2023-04-22T01:40:08;100792.28;;;7.68;91.27
73341;BME280;61578;52.002;5.468;2023-04-22T01:40:39;100798.56;;;7.66;90.71
73341;BME280;61578;52.002;5.468;2023-04-22T01:41:12;100789.78;;;7.65;90.78
73341;BME280;61578;52.002;5.468;2023-04-22T01:41:44;100794.16;;;7.66;91.10
73341;BME280;61578;52.002;5.468;2023-04-22T01:42:15;100785.44;;;7.64;90.62
73341;BME280;61578;52.002;5.468;2023-04-22T01:42:47;100797.72;;;7.65;90.74
73341;BME280;61578;52.002;5.468;2023-04-22T01:43:22;100790.72;;;7.64;90.90
73341;BME280;61578;52.002;5.468;2023-04-22T01:43:53;100797.72;;;7.65;91.16
73341;BME280;61578;52.002;5.468;2023-04-22T01:44:27;100785.63;;;7.61;90.89
73341;BME280;61578;52.002;5.468;2023-04-22T01:44:57;100795.25;;;7.62;90.79
73341;BME280;61578;52.002;5.468;2023-04-22T01:45:29;100791.75;;;7.62;91.25
73341;BME280;61578;52.002;5.468;2023-04-22T01:46:01;100795.25;;;7.62;91.19
73341;BME280;61578;52.002;5.468;2023-04-22T01:46:34;100784.69;;;7.62;91.16
73341;BME280;61578;52.002;5.468;2023-04-22T01:47:05;100793.47;;;7.63;90.85
73341;BME280;61578;52.002;5.468;2023-04-22T01:47:38;100786.38;;;7.63;91.04
73341;BME280;61578;52.002;5.468;2023-04-22T01:48:09;100792.63;;;7.62;90.55
73341;BME280;61578;52.002;5.468;2023-04-22T01:48:40;100790.97;;;7.60;90.65
73341;BME280;61578;52.002;5.468;2023-04-22T01:49:11;100782.50;;;7.53;90.70
73341;BME280;61578;52.002;5.468;2023-04-22T01:49:42;100793.63;;;7.60;91.00
73341;BME280;61578;52.002;5.468;2023-04-22T01:50:15;100783.47;;;7.52;91.06
73341;BME280;61578;52.002;5.468;2023-04-22T01:50:46;100797.97;;;7.61;91.13
73341;BME280;61578;52.002;5.468;2023-04-22T01:51:18;100790.06;;;7.61;90.72
73341;BME280;61578;52.002;5.468;2023-04-22T01:51:53;100787.41;;;7.61;90.83
73341;BME280;61578;52.002;5.468;2023-04-22T01:52:26;100775.53;;;7.52;90.86
73341;BME280;61578;52.002;5.468;2023-04-22T01:52:57;100787.41;;;7.61;91.36
73341;BME280;61578;52.002;5.468;2023-04-22T01:53:28;100783.91;;;7.60;91.32
73341;BME280;61578;52.002;5.468;2023-04-22T01:54:00;100788.25;;;7.61;90.76
73341;BME280;61578;52.002;5.468;2023-04-22T01:54:34;100787.50;;;7.59;90.65
73341;BME280;61578;52.002;5.468;2023-04-22T01:55:07;100784.00;;;7.59;91.13
73341;BME280;61578;52.002;5.468;2023-04-22T01:55:38;100784.84;;;7.59;91.21
73341;BME280;61578;52.002;5.468;2023-04-22T01:56:09;100784.91;;;7.58;90.82
73341;BME280;61578;52.002;5.468;2023-04-22T01:56:39;100782.34;;;7.56;90.58
73341;BME280;61578;52.002;5.468;2023-04-22T01:57:12;100791.22;;;7.55;91.38
73341;BME280;61578;52.002;5.468;2023-04-22T01:57:43;100785.84;;;7.57;90.85
73341;BME280;61578;52.002;5.468;2023-04-22T01:58:20;100786.97;;;7.53;90.72
73341;BME280;61578;52.002;5.468;2023-04-22T01:58:50;100786.84;;;7.54;90.70
73341;BME280;61578;52.002;5.468;2023-04-22T01:59:21;100793.94;;;7.54;90.80
73341;BME280;61578;52.002;5.468;2023-04-22T01:59:52;100789.59;;;7.53;90.79
73341;BME280;61578;52.002;5.468;2023-04-22T02:00:23;100788.81;;;7.51;91.48
73341;BME280;61578;52.002;5.468;2023-04-22T02:00:53;100785.16;;;7.53;91.33
73341;BME280;61578;52.002;5.468;2023-04-22T02:01:24;100785.16;;;7.53;91.38
73341;BME280;61578;52.002;5.468;2023-04-22T02:01:55;100779.03;;;7.53;90.72
73341;BME280;61578;52.002;5.468;2023-04-22T02:02:26;100772.41;;;7.44;90.90
73341;BME280;61578;52.002;5.468;2023-04-22T02:02:57;100789.59;;;7.53;91.12
73341;BME280;61578;52.002;5.468;2023-04-22T02:03:30;100792.13;;;7.54;91.47
73341;BME280;61578;52.002;5.468;2023-04-22T02:04:00;100794.03;;;7.52;90.70
73341;BME280;61578;52.002;5.468;2023-04-22T02:04:35;100786.97;;;7.53;90.90
73341;BME280;61578;52.002;5.468;2023-04-22T02:05:07;100786.19;;;7.51;90.99
73341;BME280;61578;52.002;5.468;2023-04-22T02:05:38;100786.09;;;7.52;91.35
73341;BME280;61578;52.002;5.468;2023-04-22T02:06:09;100789.97;;;7.62;91.18
73341;BME280;61578;52.002;5.468;2023-04-22T02:06:40;100773.91;;;7.50;90.90
73341;BME280;61578;52.002;5.468;2023-04-22T02:07:11;100789.50;;;7.54;90.96
73341;BME280;61578;52.002;5.468;2023-04-22T02:07:42;100793.84;;;7.55;91.49
73341;BME280;61578;52.002;5.468;2023-04-22T02:08:16;100775.78;;;7.48;91.49
73341;BME280;61578;52.002;5.468;2023-04-22T02:08:46;100787.78;;;7.53;90.92
73341;BME280;61578;52.002;5.468;2023-04-22T02:09:17;100786.19;;;7.51;90.87
73341;BME280;61578;52.002;5.468;2023-04-22T02:09:49;100783.53;;;7.51;90.74
73341;BME280;61578;52.002;5.468;2023-04-22T02:10:20;100781.91;;;7.48;90.40
73341;BME280;61578;52.002;5.468;2023-04-22T02:10:51;100783.69;;;7.48;90.78
73341;BME280;61578;52.002;5.468;2023-04-22T02:11:21;100781.06;;;7.48;90.96
73341;BME280;61578;52.002;5.468;2023-04-22T02:11:52;100789.91;;;7.47;90.83
73341;BME280;61578;52.002;5.468;2023-04-22T02:12:23;100778.41;;;7.48;90.96
73341;BME280;61578;52.002;5.468;2023-04-22T02:12:53;100781.97;;;7.47;91.51
73341;BME280;61578;52.002;5.468;2023-04-22T02:13:24;100741.75;;;7.24;91.45
73341;BME280;61578;52.002;5.468;2023-04-22T02:13:55;100783.28;;;7.55;91.08
73341;BME280;61578;52.002;5.468;2023-04-22T02:14:26;100787.91;;;7.52;91.14
73341;BME280;61578;52.002;5.468;2023-04-22T02:14:58;100788.03;;;7.49;91.04
73341;BME280;61578;52.002;5.468;2023-04-22T02:15:29;100769.88;;;7.43;91.33
73341;BME280;61578;52.002;5.468;2023-04-22T02:16:00;100783.63;;;7.49;90.82
73341;BME280;61578;52.002;5.468;2023-04-22T02:16:30;100774.13;;;7.45;91.01
73341;BME280;61578;52.002;5.468;2023-04-22T02:17:02;100780.81;;;7.52;91.38
73341;BME280;61578;52.002;5.468;2023-04-22T02:17:33;100788.66;;;7.54;91.23
73341;BME280;61578;52.002;5.468;2023-04-22T02:18:05;100785.16;;;7.53;91.07
73341;BME280;61578;52.002;5.468;2023-04-22T02:18:36;100774.13;;;7.45;91.15
73341;BME280;61578;52.002;5.468;2023-04-22T02:19:07;100788.66;;;7.54;91.26
73341;BME280;61578;52.002;5.468;2023-04-22T02:19:38;100791.13;;;7.57;91.57
73341;BME280;61578;52.002;5.468;2023-04-22T02:20:09;100783.13;;;7.58;91.44
73341;BME280;61578;52.002;5.468;2023-04-22T02:20:40;100784.06;;;7.57;91.24
73341;BME280;61578;52.002;5.468;2023-04-22T02:21:11;100783.22;;;7.57;90.90
73341;BME280;61578;52.002;5.468;2023-04-22T02:21:42;100786.78;;;7.56;91.17
73341;BME280;61578;52.002;5.468;2023-04-22T02:22:13;100782.28;;;7.58;91.57
73341;BME280;61578;52.002;5.468;2023-04-22T02:22:45;100783.91;;;7.60;91.61
73341;BME280;61578;52.002;5.468;2023-04-22T02:23:16;100779.56;;;7.59;91.40
73341;BME280;61578;52.002;5.468;2023-04-22T02:23:46;100787.41;;;7.61;91.57
73341;BME280;61578;52.002;5.468;2023-04-22T02:24:18;100784.69;;;7.62;91.58
73341;BME280;61578;52.002;5.468;2023-04-22T02:24:48;100789.19;;;7.60;91.30
73341;BME280;61578;52.002;5.468;2023-04-22T02:25:19;100784.59;;;7.64;91.90
73341;BME280;61578;52.002;5.468;2023-04-22T02:25:51;100788.09;;;7.64;91.61
73341;BME280;61578;52.002;5.468;2023-04-22T02:26:23;100785.56;;;7.63;91.34
73341;BME280;61578;52.002;5.468;2023-04-22T02:26:55;100786.38;;;7.63;91.05
73341;BME280;61578;52.002;5.468;2023-04-22T02:27:25;100784.69;;;7.62;91.33
73341;BME280;61578;52.002;5.468;2023-04-22T02:27:57;100785.44;;;7.64;91.27
73341;BME280;61578;52.002;5.468;2023-04-22T02:28:30;100784.50;;;7.65;91.26
73341;BME280;61578;52.002;5.468;2023-04-22T02:29:01;100785.44;;;7.64;91.16
73341;BME280;61578;52.002;5.468;2023-04-22T02:29:32;100785.38;;;7.66;91.51
73341;BME280;61578;52.002;5.468;2023-04-22T02:30:04;100784.50;;;7.65;91.22
73341;BME280;61578;52.002;5.468;2023-04-22T02:30:36;100792.34;;;7.67;91.34
73341;BME280;61578;52.002;5.468;2023-04-22T02:31:07;100786.22;;;7.66;91.08
73341;BME280;61578;52.002;5.468;2023-04-22T02:31:38;100779.00;;;7.70;91.58
73341;BME280;61578;52.002;5.468;2023-04-22T02:32:08;100786.91;;;7.70;91.44
73341;BME280;61578;52.002;5.468;2023-04-22T02:32:39;100785.91;;;7.72;91.95
73341;BME280;61578;52.002;5.468;2023-04-22T02:33:10;100784.00;;;7.74;91.74
73341;BME280;61578;52.002;5.468;2023-04-22T02:33:41;100777.88;;;7.74;91.67
73341;BME280;61578;52.002;5.468;2023-04-22T02:34:11;100783.16;;;7.74;91.69
73341;BME280;61578;52.002;5.468;2023-04-22T02:34:42;100782.22;;;7.75;91.95
73341;BME280;61578;52.002;5.468;2023-04-22T02:35:13;100778.56;;;7.78;91.87
73341;BME280;61578;52.002;5.468;2023-04-22T02:35:50;100783.78;;;7.79;91.34
73341;BME280;61578;52.002;5.468;2023-04-22T02:36:21;100783.78;;;7.79;91.18
73341;BME280;61578;52.002;5.468;2023-04-22T02:36:51;100783.72;;;7.81;91.85
73341;BME280;61578;52.002;5.468;2023-04-22T02:37:22;100779.34;;;7.80;91.42
73341;BME280;61578;52.002;5.468;2023-04-22T02:37:53;100783.72;;;7.81;91.42
73341;BME280;61578;52.002;5.468;2023-04-22T02:38:29;100779.28;;;7.81;91.56
73341;BME280;61578;52.002;5.468;2023-04-22T02:39:01;100775.69;;;7.82;91.19
73341;BME280;61578;52.002;5.468;2023-04-22T02:39:32;100778.44;;;7.81;90.93
73341;BME280;61578;52.002;5.468;2023-04-22T02:40:04;100777.66;;;7.79;91.68
73341;BME280;61578;52.002;5.468;2023-04-22T02:40:39;100773.13;;;7.81;91.63
73341;BME280;61578;52.002;5.468;2023-04-22T02:41:10;100779.44;;;7.78;91.43
73341;BME280;61578;52.002;5.468;2023-04-22T02:41:41;100782.06;;;7.78;91.13
73341;BME280;61578;52.002;5.468;2023-04-22T02:42:11;100764.06;;;7.69;91.50
73341;BME280;61578;52.002;5.468;2023-04-22T02:42:43;100767.94;;;7.79;91.55
73341;BME280;61578;52.002;5.468;2023-04-22T02:43:14;100768.78;;;7.80;91.29
73341;BME280;61578;52.002;5.468;2023-04-22T02:43:44;100772.28;;;7.80;91.15
73341;BME280;61578;52.002;5.468;2023-04-22T02:44:15;100774.94;;;7.80;91.34
73341;BME280;61578;52.002;5.468;2023-04-22T02:44:46;100779.34;;;7.80;91.52
73341;BME280;61578;52.002;5.468;2023-04-22T02:45:17;100777.56;;;7.80;91.17
73341;BME280;61578;52.002;5.468;2023-04-22T02:45:48;100771.50;;;7.78;90.76
73341;BME280;61578;52.002;5.468;2023-04-22T02:46:18;100766.22;;;7.78;91.41
73341;BME280;61578;52.002;5.468;2023-04-22T02:46:49;100761.28;;;7.72;91.51
73341;BME280;61578;52.002;5.468;2023-04-22T02:47:21;100759.38;;;7.74;91.56
73341;BME280;61578;52.002;5.468;2023-04-22T02:47:52;100770.41;;;7.82;91.60
73341;BME280;61578;52.002;5.468;2023-04-22T02:48:23;100769.56;;;7.82;91.34